sensor_id;sensor_type;location;lat;lon;timestamp;pressure;altitude;pressure_sealevel;temperature;humidity
72798;BME280;61084;55.816;37.036;2023-12-14T00:00:38;100050.53;;;-8.48;63.07
72798;BME280;61084;55.816;37.036;2023-12-14T00:03:04;100046.22;;;-8.51;63.14
72798;BME280;61084;55.816;37.036;2023-12-14T00:05:30;100052.47;;;-8.41;63.39
72798;BME280;61084;55.816;37.036;2023-12-14T00:07:56;100053.38;;;-8.39;63.15
72798;BME280;61084;55.816;37.036;2023-12-14T00:10:22;100048.44;;;-8.34;63.13
72798;BME280;61084;55.816;37.036;2023-12-14T00:12:47;100049.16;;;-8.38;63.16
72798;BME280;61084;55.816;37.036;2023-12-14T00:15:16;100048.28;;;-8.39;62.80
72798;BME280;61084;55.816;37.036;2023-12-14T00:17:42;100043.91;;;-8.43;62.95
72798;BME280;61084;55.816;37.036;2023-12-14T00:20:08;100050.69;;;-8.43;62.85
72798;BME280;61084;55.816;37.036;2023-12-14T00:22:34;100054.94;;;-8.44;63.30
72798;BME280;61084;55.816;37.036;2023-12-14T00:25:00;100054.22;;;-8.40;63.41
72798;BME280;61084;55.816;37.036;2023-12-14T00:27:26;100054.22;;;-8.40;62.94
72798;BME280;61084;55.816;37.036;2023-12-14T00:29:52;100048.28;;;-8.39;62.94
72798;BME280;61084;55.816;37.036;2023-12-14T00:32:18;100044.78;;;-8.42;63.02
72798;BME280;61084;55.816;37.036;2023-12-14T00:34:43;100055.00;;;-8.41;63.40
72798;BME280;61084;55.816;37.036;2023-12-14T00:37:09;100049.78;;;-8.46;63.12
72798;BME280;61084;55.816;37.036;2023-12-14T00:39:35;100049.69;;;-8.49;62.94
72798;BME280;61084;55.816;37.036;2023-12-14T00:42:01;100052.28;;;-8.47;63.19
72798;BME280;61084;55.816;37.036;2023-12-14T00:44:27;100054.94;;;-8.44;63.41
72798;BME280;61084;55.816;37.036;2023-12-14T00:46:53;100048.22;;;-8.42;63.15
72798;BME280;61084;55.816;37.036;2023-12-14T00:49:18;100044.75;;;-8.44;63.37
72798;BME280;61084;55.816;37.036;2023-12-14T00:51:45;100051.69;;;-8.38;63.38
72798;BME280;61084;55.816;37.036;2023-12-14T00:54:11;100050.91;;;-8.37;63.38
72798;BME280;61084;55.816;37.036;2023-12-14T00:56:37;100055.19;;;-8.35;63.17
72798;BME280;61084;55.816;37.036;2023-12-14T00:59:03;100050.22;;;-8.32;63.16
72798;BME280;61084;55.816;37.036;2023-12-14T01:01:29;100050.13;;;-8.35;62.98
72798;BME280;61084;55.816;37.036;2023-12-14T01:03:55;100052.72;;;-8.33;63.26
72798;BME280;61084;55.816;37.036;2023-12-14T01:06:22;100054.34;;;-8.35;62.93
72798;BME280;61084;55.816;37.036;2023-12-14T01:08:48;100057.84;;;-8.32;63.30
72798;BME280;61084;55.816;37.036;2023-12-14T01:11:14;100054.34;;;-8.35;63.49
72798;BME280;61084;55.816;37.036;2023-12-14T01:13:40;100048.06;;;-8.47;63.04
72798;BME280;61084;55.816;37.036;2023-12-14T01:16:06;100047.19;;;-8.47;63.16
72798;BME280;61084;55.816;37.036;2023-12-14T01:18:33;100036.91;;;-8.50;63.49
72798;BME280;61084;55.816;37.036;2023-12-14T01:20:59;100051.81;;;-8.35;63.08
72798;BME280;61084;55.816;37.036;2023-12-14T01:23:25;100054.28;;;-8.37;63.52
72798;BME280;61084;55.816;37.036;2023-12-14T01:25:51;100046.63;;;-8.38;63.46
72798;BME280;61084;55.816;37.036;2023-12-14T01:28:16;100046.66;;;-8.37;63.28
72798;BME280;61084;55.816;37.036;2023-12-14T01:30:42;100048.44;;;-8.34;63.52
72798;BME280;61084;55.816;37.036;2023-12-14T01:33:08;100058.69;;;-8.33;63.29
72798;BME280;61084;55.816;37.036;2023-12-14T01:35:34;100057.91;;;-8.30;63.19
72798;BME280;61084;55.816;37.036;2023-12-14T01:38:00;100056.94;;;-8.34;63.43
72798;BME280;61084;55.816;37.036;2023-12-14T01:40:26;100052.66;;;-8.35;63.58
72798;BME280;61084;55.816;37.036;2023-12-14T01:42:52;100047.69;;;-8.32;63.30
72798;BME280;61084;55.816;37.036;2023-12-14T01:45:18;100047.63;;;-8.33;63.26
72798;BME280;61084;55.816;37.036;2023-12-14T01:47:46;100043.16;;;-8.40;63.38
72798;BME280;61084;55.816;37.036;2023-12-14T01:50:12;100039.44;;;-8.50;63.54
72798;BME280;61084;55.816;37.036;2023-12-14T01:52:38;100040.31;;;-8.50;63.67
72798;BME280;61084;55.816;37.036;2023-12-14T01:55:05;100051.47;;;-8.46;63.42
72798;BME280;61084;55.816;37.036;2023-12-14T01:57:32;100049.03;;;-8.41;63.63
72798;BME280;61084;55.816;37.036;2023-12-14T01:59:58;100047.50;;;-8.38;63.28
72798;BME280;61084;55.816;37.036;2023-12-14T02:02:24;100046.75;;;-8.34;63.56
72798;BME280;61084;55.816;37.036;2023-12-14T02:04:50;100051.75;;;-8.37;63.47
72798;BME280;61084;55.816;37.036;2023-12-14T02:07:16;100043.31;;;-8.36;63.40
72798;BME280;61084;55.816;37.036;2023-12-14T02:09:42;100047.50;;;-8.38;63.10
72798;BME280;61084;55.816;37.036;2023-12-14T02:12:08;100050.97;;;-8.34;63.49
72798;BME280;61084;55.816;37.036;2023-12-14T02:14:33;100050.97;;;-8.34;63.14
72798;BME280;61084;55.816;37.036;2023-12-14T02:16:59;100050.03;;;-8.38;63.16
72798;BME280;61084;55.816;37.036;2023-12-14T02:19:25;100050.94;;;-8.36;63.29
72798;BME280;61084;55.816;37.036;2023-12-14T02:21:51;100050.34;;;-8.29;63.04
72798;BME280;61084;55.816;37.036;2023-12-14T02:24:17;100045.91;;;-8.34;62.94
72798;BME280;61084;55.816;37.036;2023-12-14T02:26:43;100045.97;;;-8.33;63.01
72798;BME280;61084;55.816;37.036;2023-12-14T02:29:09;100039.13;;;-8.34;63.24
72798;BME280;61084;55.816;37.036;2023-12-14T02:31:35;100046.91;;;-8.29;63.25
72798;BME280;61084;55.816;37.036;2023-12-14T02:34:01;100054.59;;;-8.28;63.07
72798;BME280;61084;55.816;37.036;2023-12-14T02:36:26;100054.66;;;-8.25;63.33
72798;BME280;61084;55.816;37.036;2023-12-14T02:38:52;100050.44;;;-8.24;62.97
72798;BME280;61084;55.816;37.036;2023-12-14T02:41:18;100044.41;;;-8.28;63.09
72798;BME280;61084;55.816;37.036;2023-12-14T02:43:44;100047.03;;;-8.26;63.13
72798;BME280;61084;55.816;37.036;2023-12-14T02:46:10;100044.47;;;-8.25;63.45
72798;BME280;61084;55.816;37.036;2023-12-14T02:48:37;100047.69;;;-8.32;63.17
72798;BME280;61084;55.816;37.036;2023-12-14T02:51:04;100046.72;;;-8.35;63.48
72798;BME280;61084;55.816;37.036;2023-12-14T02:53:30;100051.09;;;-8.31;63.17
72798;BME280;61084;55.816;37.036;2023-12-14T02:55:56;100037.47;;;-8.33;63.18
72798;BME280;61084;55.816;37.036;2023-12-14T02:58:22;100050.97;;;-8.34;63.62
72798;BME280;61084;55.816;37.036;2023-12-14T03:00:48;100054.44;;;-8.32;63.44
72798;BME280;61084;55.816;37.036;2023-12-14T03:03:13;100056.38;;;-8.25;63.77
72798;BME280;61084;55.816;37.036;2023-12-14T03:05:40;100059.84;;;-8.22;63.26
72798;BME280;61084;55.816;37.036;2023-12-14T03:08:05;100060.59;;;-8.26;63.58
72798;BME280;61084;55.816;37.036;2023-12-14T03:10:31;100060.59;;;-8.26;63.44
72798;BME280;61084;55.816;37.036;2023-12-14T03:12:57;100051.25;;;-8.27;63.18
72798;BME280;61084;55.816;37.036;2023-12-14T03:15:23;100052.16;;;-8.23;63.36
72798;BME280;61084;55.816;37.036;2023-12-14T03:17:49;100053.06;;;-8.21;63.52
72798;BME280;61084;55.816;37.036;2023-12-14T03:20:15;100061.28;;;-8.31;63.28
72798;BME280;61084;55.816;37.036;2023-12-14T03:22:41;100054.34;;;-8.35;63.60
72798;BME280;61084;55.816;37.036;2023-12-14T03:25:09;100057.75;;;-8.35;63.52
72798;BME280;61084;55.816;37.036;2023-12-14T03:27:36;100050.25;;;-8.30;63.65
72798;BME280;61084;55.816;37.036;2023-12-14T03:30:02;100052.94;;;-8.26;63.32
72798;BME280;61084;55.816;37.036;2023-12-14T03:32:34;100053.84;;;-8.24;63.38
72798;BME280;61084;55.816;37.036;2023-12-14T03:35:00;100047.06;;;-8.23;63.56
72798;BME280;61084;55.816;37.036;2023-12-14T03:37:26;100047.19;;;-8.20;63.44
72798;BME280;61084;55.816;37.036;2023-12-14T03:39:52;100048.88;;;-8.19;63.11
72798;BME280;61084;55.816;37.036;2023-12-14T03:42:21;100048.22;;;-8.14;63.23
72798;BME280;61084;55.816;37.036;2023-12-14T03:44:47;100050.63;;;-8.18;63.26
72798;BME280;61084;55.816;37.036;2023-12-14T03:47:12;100047.22;;;-8.19;63.31
72798;BME280;61084;55.816;37.036;2023-12-14T03:49:38;100041.19;;;-8.22;63.05
72798;BME280;61084;55.816;37.036;2023-12-14T03:52:04;100041.94;;;-8.25;63.15
72798;BME280;61084;55.816;37.036;2023-12-14T03:54:30;100054.69;;;-8.23;63.06
72798;BME280;61084;55.816;37.036;2023-12-14T03:56:56;100047.22;;;-8.19;63.17
72798;BME280;61084;55.816;37.036;2023-12-14T03:59:22;100053.22;;;-8.17;63.58
72798;BME280;61084;55.816;37.036;2023-12-14T04:01:48;100042.09;;;-8.20;63.57
72798;BME280;61084;55.816;37.036;2023-12-14T04:04:14;100042.00;;;-8.22;63.55
72798;BME280;61084;55.816;37.036;2023-12-14T04:06:40;100049.66;;;-8.22;63.69
72798;BME280;61084;55.816;37.036;2023-12-14T04:09:06;100029.84;;;-8.32;63.05
72798;BME280;61084;55.816;37.036;2023-12-14T04:11:32;100042.78;;;-8.26;63.55
72798;BME280;61084;55.816;37.036;2023-12-14T04:13:58;100044.47;;;-8.25;63.61
72798;BME280;61084;55.816;37.036;2023-12-14T04:16:24;100038.56;;;-8.25;63.04
72798;BME280;61084;55.816;37.036;2023-12-14T04:18:50;100041.09;;;-8.25;63.46
72798;BME280;61084;55.816;37.036;2023-12-14T04:21:16;100040.25;;;-8.24;63.19
72798;BME280;61084;55.816;37.036;2023-12-14T04:23:42;100040.25;;;-8.24;63.54
72798;BME280;61084;55.816;37.036;2023-12-14T04:26:08;100035.22;;;-8.23;63.44
72798;BME280;61084;55.816;37.036;2023-12-14T04:28:35;100042.97;;;-8.20;63.10
72798;BME280;61084;55.816;37.036;2023-12-14T04:31:02;100037.06;;;-8.17;63.41
72798;BME280;61084;55.816;37.036;2023-12-14T04:33:28;100029.34;;;-8.20;63.19
72798;BME280;61084;55.816;37.036;2023-12-14T04:35:55;100033.72;;;-8.16;63.45
72798;BME280;61084;55.816;37.036;2023-12-14T04:38:21;100043.13;;;-8.14;63.45
72798;BME280;61084;55.816;37.036;2023-12-14T04:40:47;100035.41;;;-8.17;63.14
72798;BME280;61084;55.816;37.036;2023-12-14T04:43:13;100033.63;;;-8.19;63.38
72798;BME280;61084;55.816;37.036;2023-12-14T04:45:39;100034.50;;;-8.19;63.44
72798;BME280;61084;55.816;37.036;2023-12-14T04:48:05;100040.31;;;-8.23;63.17
72798;BME280;61084;55.816;37.036;2023-12-14T04:50:31;100041.97;;;-8.23;62.92
72798;BME280;61084;55.816;37.036;2023-12-14T04:52:57;100034.34;;;-8.23;62.96
72798;BME280;61084;55.816;37.036;2023-12-14T04:55:23;100033.53;;;-8.22;63.52
72798;BME280;61084;55.816;37.036;2023-12-14T04:57:49;100041.34;;;-8.16;63.05
72798;BME280;61084;55.816;37.036;2023-12-14T05:00:15;100039.03;;;-8.09;63.54
72798;BME280;61084;55.816;37.036;2023-12-14T05:02:41;100046.59;;;-8.12;63.48
72798;BME280;61084;55.816;37.036;2023-12-14T05:05:11;100049.88;;;-8.16;63.25
72798;BME280;61084;55.816;37.036;2023-12-14T05:07:37;100043.78;;;-8.19;63.32
72798;BME280;61084;55.816;37.036;2023-12-14T05:10:03;100041.25;;;-8.19;63.12
72798;BME280;61084;55.816;37.036;2023-12-14T05:12:30;100057.53;;;-8.14;63.27
72798;BME280;61084;55.816;37.036;2023-12-14T05:14:57;100057.50;;;-8.16;63.11
72798;BME280;61084;55.816;37.036;2023-12-14T05:17:23;100050.72;;;-8.15;63.46
72798;BME280;61084;55.816;37.036;2023-12-14T05:19:48;100055.91;;;-8.12;63.20
72798;BME280;61084;55.816;37.036;2023-12-14T05:22:15;100055.91;;;-8.12;63.37
72798;BME280;61084;55.816;37.036;2023-12-14T05:24:46;100049.94;;;-8.13;63.42
72798;BME280;61084;55.816;37.036;2023-12-14T05:27:12;100053.25;;;-8.15;63.46
72798;BME280;61084;55.816;37.036;2023-12-14T05:29:38;100060.09;;;-8.14;63.49
72798;BME280;61084;55.816;37.036;2023-12-14T05:32:04;100054.19;;;-8.13;63.42
72798;BME280;61084;55.816;37.036;2023-12-14T05:34:30;100060.25;;;-8.10;63.06
72798;BME280;61084;55.816;37.036;2023-12-14T05:36:56;100050.84;;;-8.11;63.21
72798;BME280;61084;55.816;37.036;2023-12-14T05:39:22;100050.78;;;-8.14;63.30
72798;BME280;61084;55.816;37.036;2023-12-14T05:41:48;100051.50;;;-8.18;63.26
72798;BME280;61084;55.816;37.036;2023-12-14T05:44:14;100056.59;;;-8.18;63.37
72798;BME280;61084;55.816;37.036;2023-12-14T05:46:40;100046.31;;;-8.21;63.48
72798;BME280;61084;55.816;37.036;2023-12-14T05:49:06;100051.56;;;-8.15;63.02
72798;BME280;61084;55.816;37.036;2023-12-14T05:51:33;100048.13;;;-8.17;63.09
72798;BME280;61084;55.816;37.036;2023-12-14T05:53:59;100046.41;;;-8.18;63.45
72798;BME280;61084;55.816;37.036;2023-12-14T05:56:26;100047.03;;;-8.25;63.06
72798;BME280;61084;55.816;37.036;2023-12-14T05:58:52;100045.34;;;-8.24;63.26
72798;BME280;61084;55.816;37.036;2023-12-14T06:01:18;100038.66;;;-8.21;63.61
72798;BME280;61084;55.816;37.036;2023-12-14T06:03:45;100044.72;;;-8.17;63.61
72798;BME280;61084;55.816;37.036;2023-12-14T06:06:12;100035.09;;;-8.27;63.39
72798;BME280;61084;55.816;37.036;2023-12-14T06:08:39;100047.06;;;-8.23;63.35
72798;BME280;61084;55.816;37.036;2023-12-14T06:11:05;100045.31;;;-8.26;63.19
72798;BME280;61084;55.816;37.036;2023-12-14T06:13:34;100052.13;;;-8.26;63.62
72798;BME280;61084;55.816;37.036;2023-12-14T06:16:00;100048.59;;;-8.30;63.35
72798;BME280;61084;55.816;37.036;2023-12-14T06:18:26;100055.41;;;-8.29;63.53
72798;BME280;61084;55.816;37.036;2023-12-14T06:20:52;100052.56;;;-8.38;63.10
72798;BME280;61084;55.816;37.036;2023-12-14T06:23:18;100044.06;;;-8.38;63.31
72798;BME280;61084;55.816;37.036;2023-12-14T06:25:44;100043.28;;;-8.37;63.55
72798;BME280;61084;55.816;37.036;2023-12-14T06:28:10;100056.03;;;-8.36;63.15
72798;BME280;61084;55.816;37.036;2023-12-14T06:30:36;100057.81;;;-8.33;63.24
72798;BME280;61084;55.816;37.036;2023-12-14T06:33:02;100051.09;;;-8.31;63.54
72798;BME280;61084;55.816;37.036;2023-12-14T06:35:28;100046.03;;;-8.30;63.75
72798;BME280;61084;55.816;37.036;2023-12-14T06:37:54;100058.00;;;-8.27;63.34
72798;BME280;61084;55.816;37.036;2023-12-14T06:40:19;100048.63;;;-8.28;63.56
72798;BME280;61084;55.816;37.036;2023-12-14T06:42:45;100061.28;;;-8.31;63.43
72798;BME280;61084;55.816;37.036;2023-12-14T06:45:11;100043.28;;;-8.37;63.23
72798;BME280;61084;55.816;37.036;2023-12-14T06:47:37;100055.19;;;-8.35;63.77
72798;BME280;61084;55.816;37.036;2023-12-14T06:50:04;100055.31;;;-8.32;63.67
72798;BME280;61084;55.816;37.036;2023-12-14T06:52:30;100054.66;;;-8.26;63.94
72798;BME280;61084;55.816;37.036;2023-12-14T06:54:56;100053.03;;;-8.23;63.54
72798;BME280;61084;55.816;37.036;2023-12-14T06:57:22;100054.75;;;-8.22;63.65
72798;BME280;61084;55.816;37.036;2023-12-14T06:59:49;100052.34;;;-8.17;63.39
72798;BME280;61084;55.816;37.036;2023-12-14T07:02:14;100052.34;;;-8.17;63.67
72798;BME280;61084;55.816;37.036;2023-12-14T07:04:40;100059.03;;;-8.21;63.56
72798;BME280;61084;55.816;37.036;2023-12-14T07:07:06;100048.09;;;-8.18;63.67
72798;BME280;61084;55.816;37.036;2023-12-14T07:09:32;100053.25;;;-8.15;63.62
72798;BME280;61084;55.816;37.036;2023-12-14T07:11:58;100053.31;;;-8.14;63.27
72798;BME280;61084;55.816;37.036;2023-12-14T07:14:27;100066.09;;;-8.12;63.41
72798;BME280;61084;55.816;37.036;2023-12-14T07:16:52;100072.13;;;-8.09;63.38
72798;BME280;61084;55.816;37.036;2023-12-14T07:19:18;100074.75;;;-8.07;63.11
72798;BME280;61084;55.816;37.036;2023-12-14T07:21:44;100075.56;;;-8.08;63.36
72798;BME280;61084;55.816;37.036;2023-12-14T07:24:10;100070.63;;;-8.02;63.48
72798;BME280;61084;55.816;37.036;2023-12-14T07:26:36;100072.28;;;-8.04;63.33
72798;BME280;61084;55.816;37.036;2023-12-14T07:29:02;100071.44;;;-8.05;63.21
72798;BME280;61084;55.816;37.036;2023-12-14T07:31:28;100082.44;;;-8.06;63.67
72798;BME280;61084;55.816;37.036;2023-12-14T07:33:55;100080.06;;;-8.00;63.24
72798;BME280;61084;55.816;37.036;2023-12-14T07:36:22;100086.94;;;-7.97;63.53
72798;BME280;61084;55.816;37.036;2023-12-14T07:38:48;100092.13;;;-7.94;63.38
72798;BME280;61084;55.816;37.036;2023-12-14T07:41:14;100092.88;;;-7.98;63.52
72798;BME280;61084;55.816;37.036;2023-12-14T07:43:41;100103.97;;;-7.96;63.65
72798;BME280;61084;55.816;37.036;2023-12-14T07:46:07;100099.84;;;-7.91;63.38
72798;BME280;61084;55.816;37.036;2023-12-14T07:48:33;100099.13;;;-7.87;63.49
72798;BME280;61084;55.816;37.036;2023-12-14T07:50:58;100102.69;;;-7.82;63.49
72798;BME280;61084;55.816;37.036;2023-12-14T07:53:24;100098.38;;;-7.85;63.36
72798;BME280;61084;55.816;37.036;2023-12-14T07:55:50;100087.09;;;-7.93;63.62
72798;BME280;61084;55.816;37.036;2023-12-14T07:58:16;100102.41;;;-7.91;63.55
72798;BME280;61084;55.816;37.036;2023-12-14T08:00:42;100100.72;;;-7.91;63.34
72798;BME280;61084;55.816;37.036;2023-12-14T08:03:08;100100.00;;;-7.87;63.67
72798;BME280;61084;55.816;37.036;2023-12-14T08:05:34;100100.00;;;-7.87;63.37
72798;BME280;61084;55.816;37.036;2023-12-14T08:08:00;100094.13;;;-7.84;63.31
72798;BME280;61084;55.816;37.036;2023-12-14T08:10:26;100097.75;;;-7.78;63.35
72798;BME280;61084;55.816;37.036;2023-12-14T08:12:52;100096.03;;;-7.79;63.41
72798;BME280;61084;55.816;37.036;2023-12-14T08:15:18;100087.50;;;-7.79;63.32
72798;BME280;61084;55.816;37.036;2023-12-14T08:17:44;100094.28;;;-7.80;63.21
72798;BME280;61084;55.816;37.036;2023-12-14T08:20:10;100089.88;;;-7.85;63.21
72798;BME280;61084;55.816;37.036;2023-12-14T08:22:38;100097.59;;;-7.82;63.36
72798;BME280;61084;55.816;37.036;2023-12-14T08:25:13;100103.56;;;-7.82;63.59
72798;BME280;61084;55.816;37.036;2023-12-14T08:27:45;100105.81;;;-7.91;63.25
72798;BME280;61084;55.816;37.036;2023-12-14T08:30:22;100104.09;;;-7.92;63.40
72798;BME280;61084;55.816;37.036;2023-12-14T08:32:49;100099.09;;;-7.89;63.72
72798;BME280;61084;55.816;37.036;2023-12-14T08:35:15;100100.00;;;-7.87;63.64
72798;BME280;61084;55.816;37.036;2023-12-14T08:37:41;100097.41;;;-7.88;63.37
72798;BME280;61084;55.816;37.036;2023-12-14T08:40:08;100093.28;;;-7.85;63.81
72798;BME280;61084;55.816;37.036;2023-12-14T08:42:35;100102.03;;;-7.77;63.42
72798;BME280;61084;55.816;37.036;2023-12-14T08:45:01;100103.66;;;-7.79;63.69
72798;BME280;61084;55.816;37.036;2023-12-14T08:47:27;100099.28;;;-7.83;63.44
72798;BME280;61084;55.816;37.036;2023-12-14T08:49:53;100097.53;;;-7.85;63.48
72798;BME280;61084;55.816;37.036;2023-12-14T08:52:19;100094.28;;;-7.80;63.30
72798;BME280;61084;55.816;37.036;2023-12-14T08:54:45;100080.75;;;-7.79;63.45
72798;BME280;61084;55.816;37.036;2023-12-14T08:57:11;100078.59;;;-7.65;63.73
72798;BME280;61084;55.816;37.036;2023-12-14T08:59:37;100080.34;;;-7.64;63.74
72798;BME280;61084;55.816;37.036;2023-12-14T09:02:04;100067.59;;;-7.64;63.36
72798;BME280;61084;55.816;37.036;2023-12-14T09:04:30;100073.69;;;-7.59;63.78
72798;BME280;61084;55.816;37.036;2023-12-14T09:06:56;100071.81;;;-7.64;63.49
72798;BME280;61084;55.816;37.036;2023-12-14T09:09:22;100069.31;;;-7.63;63.52
72798;BME280;61084;55.816;37.036;2023-12-14T09:11:48;100071.16;;;-7.59;63.62
72798;BME280;61084;55.816;37.036;2023-12-14T09:14:14;100068.84;;;-7.50;63.31
72798;BME280;61084;55.816;37.036;2023-12-14T09:16:41;100071.41;;;-7.50;63.41
72798;BME280;61084;55.816;37.036;2023-12-14T09:19:08;100074.06;;;-7.45;63.57
72798;BME280;61084;55.816;37.036;2023-12-14T09:21:34;100078.34;;;-7.46;63.54
72798;BME280;61084;55.816;37.036;2023-12-14T09:23:59;100085.88;;;-7.49;63.61
72798;BME280;61084;55.816;37.036;2023-12-14T09:26:25;100090.22;;;-7.46;63.43
72798;BME280;61084;55.816;37.036;2023-12-14T09:28:51;100090.28;;;-7.43;63.56
72798;BME280;61084;55.816;37.036;2023-12-14T09:31:17;100083.50;;;-7.43;63.12
72798;BME280;61084;55.816;37.036;2023-12-14T09:33:43;100093.63;;;-7.46;63.25
72798;BME280;61084;55.816;37.036;2023-12-14T09:36:09;100102.34;;;-7.38;63.42
72798;BME280;61084;55.816;37.036;2023-12-14T09:38:35;100088.84;;;-7.35;63.34
72798;BME280;61084;55.816;37.036;2023-12-14T09:41:01;100086.22;;;-7.37;63.23
72798;BME280;61084;55.816;37.036;2023-12-14T09:43:28;100105.63;;;-7.42;63.17
72798;BME280;61084;55.816;37.036;2023-12-14T09:45:55;100104.03;;;-7.38;63.28
72798;BME280;61084;55.816;37.036;2023-12-14T09:48:22;100109.94;;;-7.39;63.38
72798;BME280;61084;55.816;37.036;2023-12-14T09:50:49;100109.22;;;-7.35;63.29
72798;BME280;61084;55.816;37.036;2023-12-14T09:53:15;100104.31;;;-7.29;63.19
72798;BME280;61084;55.816;37.036;2023-12-14T09:55:41;100109.38;;;-7.31;63.22
72798;BME280;61084;55.816;37.036;2023-12-14T09:58:07;100104.03;;;-7.38;63.35
72798;BME280;61084;55.816;37.036;2023-12-14T10:00:40;100109.16;;;-7.37;63.22
72798;BME280;61084;55.816;37.036;2023-12-14T10:03:23;100101.63;;;-7.34;63.31
72798;BME280;61084;55.816;37.036;2023-12-14T10:05:53;100099.06;;;-7.34;63.47
72798;BME280;61084;55.816;37.036;2023-12-14T10:08:19;100101.63;;;-7.34;63.12
72798;BME280;61084;55.816;37.036;2023-12-14T10:10:52;100089.59;;;-7.38;63.08
72798;BME280;61084;55.816;37.036;2023-12-14T10:13:20;100097.25;;;-7.38;63.25
72798;BME280;61084;55.816;37.036;2023-12-14T10:15:47;100097.19;;;-7.39;63.03
72798;BME280;61084;55.816;37.036;2023-12-14T10:18:24;100092.94;;;-7.40;63.12
72798;BME280;61084;55.816;37.036;2023-12-14T10:20:51;100094.09;;;-7.29;63.04
72798;BME280;61084;55.816;37.036;2023-12-14T10:23:17;100088.41;;;-7.21;63.36
72798;BME280;61084;55.816;37.036;2023-12-14T10:25:44;100090.94;;;-7.21;63.09
72798;BME280;61084;55.816;37.036;2023-12-14T10:28:13;100091.00;;;-7.19;63.03
72798;BME280;61084;55.816;37.036;2023-12-14T10:30:40;100095.94;;;-7.24;62.87
72798;BME280;61084;55.816;37.036;2023-12-14T10:33:06;100088.28;;;-7.25;63.13
72798;BME280;61084;55.816;37.036;2023-12-14T10:35:32;100087.56;;;-7.20;63.09
72798;BME280;61084;55.816;37.036;2023-12-14T10:38:03;100080.88;;;-7.16;63.31
72798;BME280;61084;55.816;37.036;2023-12-14T10:40:30;100067.25;;;-7.17;63.04
72798;BME280;61084;55.816;37.036;2023-12-14T10:42:59;100063.84;;;-7.17;62.99
72798;BME280;61084;55.816;37.036;2023-12-14T10:45:32;100061.25;;;-7.19;63.32
72798;BME280;61084;55.816;37.036;2023-12-14T10:48:00;100056.13;;;-7.20;62.94
72798;BME280;61084;55.816;37.036;2023-12-14T10:50:29;100058.72;;;-7.19;63.11
72798;BME280;61084;55.816;37.036;2023-12-14T10:52:59;100056.19;;;-7.17;63.09
72798;BME280;61084;55.816;37.036;2023-12-14T10:55:33;100046.00;;;-7.17;63.03
72798;BME280;61084;55.816;37.036;2023-12-14T10:58:03;100048.25;;;-7.28;63.00
72798;BME280;61084;55.816;37.036;2023-12-14T11:00:33;100039.59;;;-7.33;62.80
72798;BME280;61084;55.816;37.036;2023-12-14T11:02:59;100035.22;;;-7.38;62.88
72798;BME280;61084;55.816;37.036;2023-12-14T11:05:28;100034.34;;;-7.39;62.95
72798;BME280;61084;55.816;37.036;2023-12-14T11:08:01;100031.03;;;-7.36;62.92
72798;BME280;61084;55.816;37.036;2023-12-14T11:10:40;100035.44;;;-7.31;63.21
72798;BME280;61084;55.816;37.036;2023-12-14T11:13:10;100028.75;;;-7.26;63.00
72798;BME280;61084;55.816;37.036;2023-12-14T11:15:39;100027.22;;;-7.21;62.92
72798;BME280;61084;55.816;37.036;2023-12-14T11:23:12;100026.28;;;-7.24;62.62
72798;BME280;61084;55.816;37.036;2023-12-14T11:25:50;100030.63;;;-7.20;62.83
72798;BME280;61084;55.816;37.036;2023-12-14T11:28:17;100034.09;;;-7.18;62.73
72798;BME280;61084;55.816;37.036;2023-12-14T11:30:44;100031.66;;;-7.14;62.82
72798;BME280;61084;55.816;37.036;2023-12-14T11:33:11;100032.44;;;-7.16;62.76
72798;BME280;61084;55.816;37.036;2023-12-14T11:35:37;100032.41;;;-7.18;62.87
72798;BME280;61084;55.816;37.036;2023-12-14T11:38:03;100034.28;;;-7.11;62.58
72798;BME280;61084;55.816;37.036;2023-12-14T11:40:36;100031.78;;;-7.09;63.01
72798;BME280;61084;55.816;37.036;2023-12-14T11:43:03;100045.25;;;-7.13;62.48
72798;BME280;61084;55.816;37.036;2023-12-14T11:45:38;100039.22;;;-7.17;62.78
72798;BME280;61084;55.816;37.036;2023-12-14T11:48:06;100041.66;;;-7.20;62.83
72798;BME280;61084;55.816;37.036;2023-12-14T11:50:32;100033.09;;;-7.23;62.73
72798;BME280;61084;55.816;37.036;2023-12-14T11:53:02;100038.16;;;-7.25;62.93
72798;BME280;61084;55.816;37.036;2023-12-14T11:55:34;100033.00;;;-7.26;62.70
72798;BME280;61084;55.816;37.036;2023-12-14T11:58:01;100031.31;;;-7.26;62.89
72798;BME280;61084;55.816;37.036;2023-12-14T12:00:27;100033.00;;;-7.26;63.15
72798;BME280;61084;55.816;37.036;2023-12-14T12:03:14;100050.06;;;-7.24;62.92
72798;BME280;61084;55.816;37.036;2023-12-14T12:05:43;100045.81;;;-7.25;62.71
72798;BME280;61084;55.816;37.036;2023-12-14T12:08:10;100043.28;;;-7.23;62.82
72798;BME280;61084;55.816;37.036;2023-12-14T12:10:37;100044.84;;;-7.28;62.85
72798;BME280;61084;55.816;37.036;2023-12-14T12:13:06;100040.34;;;-7.37;63.07
72798;BME280;61084;55.816;37.036;2023-12-14T12:15:32;100039.56;;;-7.34;62.66
72798;BME280;61084;55.816;37.036;2023-12-14T12:18:06;100044.63;;;-7.36;63.33
72798;BME280;61084;55.816;37.036;2023-12-14T12:20:33;100041.31;;;-7.33;62.89
72798;BME280;61084;55.816;37.036;2023-12-14T12:22:59;100046.53;;;-7.29;63.01
72798;BME280;61084;55.816;37.036;2023-12-14T12:25:28;100051.66;;;-7.27;63.36
72798;BME280;61084;55.816;37.036;2023-12-14T12:27:54;100045.63;;;-7.31;63.04
72798;BME280;61084;55.816;37.036;2023-12-14T12:30:23;100035.53;;;-7.26;63.30
72798;BME280;61084;55.816;37.036;2023-12-14T12:32:50;100039.06;;;-7.23;62.95
72798;BME280;61084;55.816;37.036;2023-12-14T12:35:19;100044.19;;;-7.21;63.09
72798;BME280;61084;55.816;37.036;2023-12-14T12:37:45;100039.25;;;-7.15;63.01
72798;BME280;61084;55.816;37.036;2023-12-14T12:40:12;100036.69;;;-7.15;62.92
72798;BME280;61084;55.816;37.036;2023-12-14T12:42:38;100048.59;;;-7.16;63.22